Time;durP1;ratioP1;P1;durP2;ratioP2;P2;SDS_P1;SDS_P2;PMS_P1;PMS_P2;Temp;Humidity;BMP_temperature;BMP_pressure;BME280_temperature;BME280_humidity;BME280_pressure;Samples;Min_cycle;Max_cycle;Signal;HPM_P1;HPM_P2
2022/09/09 00:00:44;;;;;;;;;;;;;;;23.94;51.23;100469.13;5119859;27;19932;-39
2022/09/09 00:03:19;;;;;;;;;;;;;;;23.94;51.41;100482.22;5139973;27;20056;-38
2022/09/09 00:06:05;;;;;;;;;;;;;;;23.93;51.35;100480.59;5122003;27;19923;-38
2022/09/09 00:08:35;;;;;;;;;;;;;;;23.93;51.31;100489.75;5125646;27;20373;-38
2022/09/09 00:11:01;;;;;;;;;;;;;;;23.94;51.32;100476.66;5141827;27;19930;-38
2022/09/09 00:13:30;;;;;;;;;;;;;;;23.93;51.23;100467.50;5121543;27;19931;-38
2022/09/09 00:15:57;;;;;;;;;;;;;;;23.93;51.35;100470.28;5135388;27;20459;-38
2022/09/09 00:18:24;;;;;;;;;;;;;;;23.91;51.25;100472.56;5119867;27;19948;-38
2022/09/09 00:21:07;;;;;;;;;;;;;;;23.92;51.32;100465.88;5141580;27;20025;-38
2022/09/09 00:23:34;;;;;;;;;;;;;;;23.93;51.34;100467.50;5140888;27;19984;-39
2022/09/09 00:26:19;;;;;;;;;;;;;;;23.93;51.33;100472.25;5145271;27;19982;-38
2022/09/09 00:29:05;;;;;;;;;;;;;;;23.93;51.31;100473.06;5129961;27;19975;-38
2022/09/09 00:31:31;;;;;;;;;;;;;;;23.91;51.37;100472.56;5123883;27;19977;-39
2022/09/09 00:33:58;;;;;;;;;;;;;;;23.92;51.25;100478.94;5139364;27;19922;-38
2022/09/09 00:36:25;;;;;;;;;;;;;;;23.91;51.28;100480.91;5117575;27;20022;-38
2022/09/09 00:38:52;;;;;;;;;;;;;;;23.91;51.24;100469.78;5125166;27;20365;-38
2022/09/09 00:41:21;;;;;;;;;;;;;;;23.91;51.24;100461.44;5146398;27;20174;-38
2022/09/09 00:44:03;;;;;;;;;;;;;;;23.91;51.40;100463.41;5139439;27;20030;-38
2022/09/09 00:46:36;;;;;;;;;;;;;;;23.92;51.36;100462.25;5135152;27;20014;-38
2022/09/09 00:49:21;;;;;;;;;;;;;;;23.92;51.33;100459.47;5141707;27;19924;-38
2022/09/09 00:51:53;;;;;;;;;;;;;;;23.92;51.18;100453.91;5127573;27;20022;-38
2022/09/09 00:54:23;;;;;;;;;;;;;;;23.90;51.25;100459.78;5137719;27;20010;-39
2022/09/09 00:56:53;;;;;;;;;;;;;;;23.91;51.34;100461.44;5140571;27;20023;-39
2022/09/09 00:59:25;;;;;;;;;;;;;;;23.91;51.18;100460.63;5141737;27;19932;-38
2022/09/09 01:01:54;;;;;;;;;;;;;;;23.90;51.37;100458.97;5120772;27;19931;-38
2022/09/09 01:04:22;;;;;;;;;;;;;;;23.90;51.19;100461.75;5139443;27;19934;-39
2022/09/09 01:06:52;;;;;;;;;;;;;;;23.90;51.22;100456.19;5139377;27;19966;-41
2022/09/09 01:09:34;;;;;;;;;;;;;;;23.91;51.25;100466.19;5141128;27;19966;-39
2022/09/09 01:17:20;;;;;;;;;;;;;;;23.89;51.25;100460.13;5172037;27;19925;-38
2022/09/09 01:20:05;;;;;;;;;;;;;;;23.90;51.20;100462.56;5155338;27;20017;-38
2022/09/09 01:22:34;;;;;;;;;;;;;;;23.88;51.41;100453.75;5142901;27;20010;-38
2022/09/09 01:25:08;;;;;;;;;;;;;;;23.88;51.34;100452.94;5141787;27;20024;-38
2022/09/09 01:27:33;;;;;;;;;;;;;;;23.88;51.37;100450.97;5157696;27;20409;-38
2022/09/09 01:29:59;;;;;;;;;;;;;;;23.88;51.42;100455.72;5160928;27;19934;-38
2022/09/09 01:32:41;;;;;;;;;;;;;;;23.88;51.29;100453.75;5161729;27;20366;-38
2022/09/09 01:35:09;;;;;;;;;;;;;;;23.88;51.36;100452.94;5164102;27;19978;-38
2022/09/09 01:37:35;;;;;;;;;;;;;;;23.88;51.30;100456.53;5159676;27;21338;-38
2022/09/09 01:40:01;;;;;;;;;;;;;;;23.89;51.22;100454.56;5156361;27;19930;-38
2022/09/09 01:42:26;;;;;;;;;;;;;;;23.88;51.23;100447.38;5161351;27;19932;-38
2022/09/09 01:44:54;;;;;;;;;;;;;;;23.88;51.21;100442.63;5156290;27;19930;-38
2022/09/09 01:47:19;;;;;;;;;;;;;;;23.88;51.34;100447.38;5155571;27;20168;-38
2022/09/09 01:49:45;;;;;;;;;;;;;;;23.87;51.44;100449.31;5147425;27;19965;-38
2022/09/09 01:52:10;;;;;;;;;;;;;;;23.88;51.36;100447.38;5150456;27;19932;-38
2022/09/09 01:54:36;;;;;;;;;;;;;;;23.87;51.41;100443.75;5150485;27;19927;-39
2022/09/09 01:57:20;;;;;;;;;;;;;;;23.89;51.39;100443.44;5150062;27;19931;-38
2022/09/09 02:00:06;;;;;;;;;;;;;;;23.87;51.38;100440.97;5146800;27;20014;-38
2022/09/09 02:02:34;;;;;;;;;;;;;;;23.88;51.43;100444.59;5131721;27;19967;-38
2022/09/09 02:05:03;;;;;;;;;;;;;;;23.87;51.24;100445.72;5149688;27;19980;-38
2022/09/09 02:07:38;;;;;;;;;;;;;;;23.86;51.38;100444.91;5151430;27;20374;-38
2022/09/09 02:10:07;;;;;;;;;;;;;;;23.86;51.44;100441.31;5148024;27;20388;-38
2022/09/09 02:12:33;;;;;;;;;;;;;;;23.86;51.44;100444.09;5153255;27;20068;-38
2022/09/09 02:15:02;;;;;;;;;;;;;;;23.87;51.30;100448.50;5149605;27;19935;-38
2022/09/09 02:17:28;;;;;;;;;;;;;;;23.87;51.29;100442.94;5151445;27;19978;-38
2022/09/09 02:19:58;;;;;;;;;;;;;;;23.86;51.33;100450.47;5131093;27;20010;-38
2022/09/09 02:22:23;;;;;;;;;;;;;;;23.87;51.51;100451.28;5127853;27;20369;-38
2022/09/09 02:24:49;;;;;;;;;;;;;;;23.87;51.37;100451.28;5151745;27;19935;-38
2022/09/09 02:27:16;;;;;;;;;;;;;;;23.85;51.26;100448.84;5145088;27;20000;-38
2022/09/09 02:29:42;;;;;;;;;;;;;;;23.86;51.41;100441.31;5134664;27;20420;-38
2022/09/09 02:32:10;;;;;;;;;;;;;;;23.86;51.32;100444.91;5137028;27;20148;-38
2022/09/09 02:34:37;;;;;;;;;;;;;;;23.86;51.36;100438.53;5136037;27;20418;-38
2022/09/09 02:37:03;;;;;;;;;;;;;;;23.86;51.41;100444.09;5136992;27;19970;-38
2022/09/09 02:39:28;;;;;;;;;;;;;;;23.86;51.52;100435.75;5132886;27;20018;-38
2022/09/09 02:41:54;;;;;;;;;;;;;;;23.85;51.40;100445.25;5141451;27;19930;-38
2022/09/09 02:44:19;;;;;;;;;;;;;;;23.86;51.42;100438.53;5136967;27;19923;-38
2022/09/09 02:46:57;;;;;;;;;;;;;;;23.86;51.21;100444.09;5116494;27;19923;-38
2022/09/09 02:49:40;;;;;;;;;;;;;;;23.85;51.27;100431.34;5133479;27;20013;-38
2022/09/09 02:52:08;;;;;;;;;;;;;;;23.86;51.36;100427.41;5116927;27;19975;-38
2022/09/09 02:54:35;;;;;;;;;;;;;;;23.86;51.26;100427.41;5118501;27;20429;-37
2022/09/09 02:57:03;;;;;;;;;;;;;;;23.85;51.35;100425.78;5137287;27;20046;-38
2022/09/09 02:59:29;;;;;;;;;;;;;;;23.85;51.29;100426.59;5135174;27;20010;-38
2022/09/09 03:01:54;;;;;;;;;;;;;;;23.84;51.21;100424.97;5133571;27;19930;-38
2022/09/09 03:04:20;;;;;;;;;;;;;;;23.85;51.30;100423.81;5138292;27;19930;-38
2022/09/09 03:06:46;;;;;;;;;;;;;;;23.83;51.44;100420.50;5129549;27;19923;-38
2022/09/09 03:09:11;;;;;;;;;;;;;;;23.85;51.30;100431.34;5130816;27;19931;-38
2022/09/09 03:11:38;;;;;;;;;;;;;;;23.84;51.29;100427.75;5135781;27;19923;-38
2022/09/09 03:14:04;;;;;;;;;;;;;;;23.83;51.25;100431.63;5136273;27;19974;-38
2022/09/09 03:16:29;;;;;;;;;;;;;;;23.83;51.41;100426.06;5130516;27;19931;-38
2022/09/09 03:18:55;;;;;;;;;;;;;;;23.84;51.26;100415.81;5134667;27;19924;-38
2022/09/09 03:21:21;;;;;;;;;;;;;;;23.84;51.40;100418.56;5132087;27;20258;-38
2022/09/09 03:23:46;;;;;;;;;;;;;;;23.84;51.42;100418.56;5139232;27;19923;-38
2022/09/09 03:26:12;;;;;;;;;;;;;;;23.83;51.36;100420.50;5134108;27;19923;-38
2022/09/09 03:28:37;;;;;;;;;;;;;;;23.84;51.43;100418.56;5131474;27;19924;-38
2022/09/09 03:31:03;;;;;;;;;;;;;;;23.84;51.30;100426.94;5132466;27;19932;-38
2022/09/09 03:33:29;;;;;;;;;;;;;;;23.84;51.45;100421.34;5115581;27;20001;-39
2022/09/09 03:35:56;;;;;;;;;;;;;;;23.82;51.17;100421.66;5139376;27;20352;-38
2022/09/09 03:38:23;;;;;;;;;;;;;;;23.83;51.47;100416.91;5134929;27;20000;-38
2022/09/09 03:40:49;;;;;;;;;;;;;;;23.83;51.39;100423.28;5136317;27;19993;-38
2022/09/09 03:43:16;;;;;;;;;;;;;;;23.83;51.42;100416.91;5136664;27;20381;-38
2022/09/09 03:45:46;;;;;;;;;;;;;;;23.81;51.38;100420.03;5137859;27;19962;-38
2022/09/09 03:48:12;;;;;;;;;;;;;;;23.83;51.50;100425.25;5120795;27;19930;-38
2022/09/09 03:50:38;;;;;;;;;;;;;;;23.81;51.49;100422.81;5130271;27;19971;-38
2022/09/09 03:53:04;;;;;;;;;;;;;;;23.83;51.47;100416.91;5139268;27;20350;-38
2022/09/09 03:55:30;;;;;;;;;;;;;;;23.80;51.32;100421.19;5133704;27;20023;-38
2022/09/09 03:57:56;;;;;;;;;;;;;;;23.81;51.44;100424.78;5133517;27;19924;-38
2022/09/09 04:00:21;;;;;;;;;;;;;;;23.80;51.45;100423.16;5130842;27;19977;-38
2022/09/09 04:02:47;;;;;;;;;;;;;;;23.81;51.32;100420.03;5132283;27;19924;-37
2022/09/09 04:05:13;;;;;;;;;;;;;;;23.81;51.44;100422.81;5136691;27;19923;-38
2022/09/09 04:07:38;;;;;;;;;;;;;;;23.81;51.17;100416.44;5138606;27;19970;-38
2022/09/09 04:10:04;;;;;;;;;;;;;;;23.81;51.46;100413.66;5132635;27;19931;-38
2022/09/09 04:12:30;;;;;;;;;;;;;;;23.82;51.35;100418.88;5134439;27;19967;-38
2022/09/09 04:14:55;;;;;;;;;;;;;;;23.81;51.43;100413.66;5133484;27;19923;-38
2022/09/09 04:17:21;;;;;;;;;;;;;;;23.80;51.52;100425.94;5133556;27;20370;-38
2022/09/09 04:19:46;;;;;;;;;;;;;;;23.81;51.27;100427.56;5131924;27;20332;-38
2022/09/09 04:22:12;;;;;;;;;;;;;;;23.83;51.44;100422.47;5134310;27;19937;-38
2022/09/09 04:24:37;;;;;;;;;;;;;;;23.80;51.48;100418.41;5133315;27;19924;-38
2022/09/09 04:27:03;;;;;;;;;;;;;;;23.82;51.46;100420.84;5135354;27;19931;-37
2022/09/09 04:29:29;;;;;;;;;;;;;;;23.81;51.46;100419.22;5135603;27;19937;-38
2022/09/09 04:31:54;;;;;;;;;;;;;;;23.81;51.44;100419.22;5132389;27;19961;-37
2022/09/09 04:34:20;;;;;;;;;;;;;;;23.80;51.40;100423.97;5142753;27;20301;-38
2022/09/09 04:36:46;;;;;;;;;;;;;;;23.81;51.27;100416.44;5134523;27;20017;-38
2022/09/09 04:39:12;;;;;;;;;;;;;;;23.81;51.10;100416.44;5138430;27;19924;-38
2022/09/09 04:41:37;;;;;;;;;;;;;;;23.80;51.23;100420.38;5135868;27;20354;-38
2022/09/09 04:44:03;;;;;;;;;;;;;;;23.80;51.02;100423.16;5134395;27;19928;-39
2022/09/09 04:46:29;;;;;;;;;;;;;;;23.80;51.20;100421.19;5135260;27;19923;-38
2022/09/09 04:48:54;;;;;;;;;;;;;;;23.79;51.16;100419.53;5135108;27;20395;-38
2022/09/09 04:51:20;;;;;;;;;;;;;;;23.80;50.94;100420.38;5134736;27;19931;-37
2022/09/09 04:53:47;;;;;;;;;;;;;;;23.79;51.08;100411.19;5129252;27;19938;-37
2022/09/09 04:56:13;;;;;;;;;;;;;;;23.80;51.02;100417.59;5128570;27;19975;-38
2022/09/09 04:58:41;;;;;;;;;;;;;;;23.78;51.12;100423.47;5130462;27;20014;-38
2022/09/09 05:01:07;;;;;;;;;;;;;;;23.78;51.12;100420.69;5110824;27;20037;-38
2022/09/09 05:03:33;;;;;;;;;;;;;;;23.78;51.15;100423.47;5112926;28;20436;-39
2022/09/09 05:06:04;;;;;;;;;;;;;;;23.78;51.13;100418.72;5127969;27;19975;-39
2022/09/09 05:08:29;;;;;;;;;;;;;;;23.80;51.34;100426.75;5116559;28;20144;-38
2022/09/09 05:10:55;;;;;;;;;;;;;;;23.79;50.94;100419.53;5130599;27;19931;-37
2022/09/09 05:13:22;;;;;;;;;;;;;;;23.79;51.17;100425.09;5140228;27;19930;-38
2022/09/09 05:15:52;;;;;;;;;;;;;;;23.79;51.23;100427.88;5128868;27;19923;-38
2022/09/09 05:18:17;;;;;;;;;;;;;;;23.78;51.19;100418.72;5126451;27;19976;-38
2022/09/09 05:20:43;;;;;;;;;;;;;;;23.79;51.28;100416.75;5122107;27;19924;-38
2022/09/09 05:23:11;;;;;;;;;;;;;;;23.78;50.98;100421.50;5134828;27;19927;-39
2022/09/09 05:25:36;;;;;;;;;;;;;;;23.80;51.22;100415.63;5122131;27;19971;-39
2022/09/09 05:28:02;;;;;;;;;;;;;;;23.78;51.07;100413.16;5130818;27;20394;-38
2022/09/09 05:30:27;;;;;;;;;;;;;;;23.80;51.13;100412.03;5127885;27;19924;-39
2022/09/09 05:32:55;;;;;;;;;;;;;;;23.80;50.92;100414.81;5123623;27;19932;-40
2022/09/09 05:35:21;;;;;;;;;;;;;;;23.79;51.22;100411.19;5121546;27;20405;-38
2022/09/09 05:37:47;;;;;;;;;;;;;;;23.77;51.23;100417.06;5120106;27;19975;-40
2022/09/09 05:40:13;;;;;;;;;;;;;;;23.79;51.23;100413.97;5124438;27;20010;-39
2022/09/09 05:42:39;;;;;;;;;;;;;;;23.78;51.21;100407.59;5121610;27;20344;-39
2022/09/09 05:45:05;;;;;;;;;;;;;;;23.79;51.29;100411.19;5126114;27;20068;-39
2022/09/09 05:47:30;;;;;;;;;;;;;;;23.79;51.04;100419.53;5125811;27;20541;-41
2022/09/09 05:49:56;;;;;;;;;;;;;;;23.78;51.30;100417.91;5124087;27;19932;-43
2022/09/09 05:52:23;;;;;;;;;;;;;;;23.78;51.19;100415.13;5112295;27;20274;-43
2022/09/09 05:54:49;;;;;;;;;;;;;;;23.78;51.29;100418.72;5118490;27;20026;-42
2022/09/09 05:57:14;;;;;;;;;;;;;;;23.78;51.15;100427.06;5111075;27;19924;-41
2022/09/09 05:59:40;;;;;;;;;;;;;;;23.79;51.21;100425.09;5107194;27;20289;-41
2022/09/09 06:02:05;;;;;;;;;;;;;;;23.78;51.13;100423.47;5106921;27;20070;-40
2022/09/09 06:04:32;;;;;;;;;;;;;;;23.62;51.34;100428.63;5115372;27;19976;-46
2022/09/09 06:06:57;;;;;;;;;;;;;;;23.42;51.83;100427.25;5116869;27;20010;-43
2022/09/09 06:09:23;;;;;;;;;;;;;;;23.61;51.36;100431.72;5110215;27;19934;-41
2022/09/09 06:11:48;;;;;;;;;;;;;;;23.69;51.02;100431.78;5113246;27;19931;-43
2022/09/09 06:14:14;;;;;;;;;;;;;;;23.70;50.97;100427.84;5113478;27;19930;-42
2022/09/09 06:16:43;;;;;;;;;;;;;;;23.73;50.99;100424.44;5126057;27;20400;-41
2022/09/09 06:19:09;;;;;;;;;;;;;;;23.75;50.84;100441.63;5124613;27;19979;-41
2022/09/09 06:21:36;;;;;;;;;;;;;;;23.75;50.53;100430.50;5121262;27;20018;-41
2022/09/09 06:24:02;;;;;;;;;;;;;;;23.76;50.75;100434.91;5117909;27;20030;-41
2022/09/09 06:26:30;;;;;;;;;;;;;;;23.74;50.82;100431.63;5101863;27;20495;-43
2022/09/09 06:28:57;;;;;;;;;;;;;;;23.75;50.73;100429.69;5091361;27;20054;-41
2022/09/09 06:31:23;;;;;;;;;;;;;;;23.76;50.88;100440.47;5119498;27;19965;-41
2022/09/09 06:33:54;;;;;;;;;;;;;;;23.75;50.63;100430.50;5106237;27;19931;-42
2022/09/09 06:36:21;;;;;;;;;;;;;;;23.74;50.62;100422.47;5117303;27;19970;-44
2022/09/09 06:38:46;;;;;;;;;;;;;;;23.75;50.82;100424.94;5111691;27;19934;-42
2022/09/09 06:41:13;;;;;;;;;;;;;;;23.76;50.62;100429.34;5111707;27;19924;-43
2022/09/09 06:43:39;;;;;;;;;;;;;;;23.77;50.88;100435.72;5111016;27;20391;-42
2022/09/09 06:46:05;;;;;;;;;;;;;;;23.77;50.84;100439.31;5110495;27;20369;-42
2022/09/09 06:48:30;;;;;;;;;;;;;;;23.78;50.93;100435.41;5115447;27;20108;-41
2022/09/09 06:51:00;;;;;;;;;;;;;;;23.77;50.83;100430.16;5109428;27;19935;-43
2022/09/09 06:53:27;;;;;;;;;;;;;;;23.80;50.95;100435.09;5124397;27;19970;-44
2022/09/09 06:55:52;;;;;;;;;;;;;;;23.80;50.97;100426.75;5115510;27;20029;-42
2022/09/09 06:58:18;;;;;;;;;;;;;;;23.75;50.58;100429.69;5102400;28;19981;-43
2022/09/09 07:00:43;;;;;;;;;;;;;;;23.55;51.40;100431.06;5113331;27;19931;-43
2022/09/09 07:03:10;;;;;;;;;;;;;;;23.68;50.70;100432.94;5112133;27;20379;-41
2022/09/09 07:05:35;;;;;;;;;;;;;;;23.76;50.71;100434.09;5088570;27;19936;-41
2022/09/09 07:08:01;;;;;;;;;;;;;;;23.78;50.42;100442.91;5119454;27;20401;-42
2022/09/09 07:10:27;;;;;;;;;;;;;;;23.78;50.43;100443.72;5115057;27;20038;-41
2022/09/09 07:12:52;;;;;;;;;;;;;;;23.78;50.29;100442.91;5111310;27;20068;-45
2022/09/09 07:15:19;;;;;;;;;;;;;;;23.80;50.09;100448.19;5115413;27;19930;-41
2022/09/09 07:17:44;;;;;;;;;;;;;;;23.80;50.17;100449.00;5112432;27;20010;-42
2022/09/09 07:20:10;;;;;;;;;;;;;;;23.80;49.99;100439.84;5121039;27;19931;-42
2022/09/09 07:22:36;;;;;;;;;;;;;;;23.81;50.03;100447.84;5113748;27;20365;-41
2022/09/09 07:25:02;;;;;;;;;;;;;;;23.72;49.23;100452.56;5122595;27;19938;-41
2022/09/09 07:27:27;;;;;;;;;;;;;;;23.78;49.17;100451.25;5116731;27;20014;-41
2022/09/09 07:29:54;;;;;;;;;;;;;;;23.78;49.12;100452.06;5118776;27;19971;-41
2022/09/09 07:32:20;;;;;;;;;;;;;;;23.78;49.12;100446.50;5114285;27;20512;-43
2022/09/09 07:34:46;;;;;;;;;;;;;;;23.83;49.58;100450.28;5115357;27;20324;-42
2022/09/09 07:37:13;;;;;;;;;;;;;;;23.82;49.19;100451.44;5118758;27;20010;-41
2022/09/09 07:39:39;;;;;;;;;;;;;;;23.80;49.10;100457.34;5117912;27;20043;-42
2022/09/09 07:42:04;;;;;;;;;;;;;;;23.83;49.55;100455.84;5098374;27;20365;-40
2022/09/09 07:44:32;;;;;;;;;;;;;;;23.81;49.18;100463.72;5114335;27;19997;-40
2022/09/09 07:46:57;;;;;;;;;;;;;;;23.85;49.53;100461.91;5095037;27;20030;-41
2022/09/09 07:49:24;;;;;;;;;;;;;;;23.83;48.99;100467.78;5111365;27;19931;-40
2022/09/09 07:51:57;;;;;;;;;;;;;;;23.83;48.93;100458.63;5114828;27;19927;-40
2022/09/09 07:54:23;;;;;;;;;;;;;;;23.82;49.16;100465.34;5121264;27;19923;-41
2022/09/09 07:56:49;;;;;;;;;;;;;;;23.83;49.05;100473.34;5114205;27;19935;-42
2022/09/09 07:59:15;;;;;;;;;;;;;;;23.82;49.08;100466.16;5117148;27;20267;-42
2022/09/09 08:01:42;;;;;;;;;;;;;;;23.83;49.33;100465.00;5097662;27;20349;-40
2022/09/09 08:04:08;;;;;;;;;;;;;;;23.83;49.07;100470.56;5105669;27;20045;-43
2022/09/09 08:06:36;;;;;;;;;;;;;;;23.84;49.27;100461.09;5109564;27;20011;-42
2022/09/09 08:09:02;;;;;;;;;;;;;;;23.85;49.11;100470.25;5113277;27;20041;-40
2022/09/09 08:11:28;;;;;;;;;;;;;;;23.84;49.05;100472.22;5087996;27;19932;-42
2022/09/09 08:13:53;;;;;;;;;;;;;;;23.85;49.22;100465.53;5121704;27;19932;-41
2022/09/09 08:16:25;;;;;;;;;;;;;;;23.85;49.07;100468.31;5118999;27;21760;-41
2022/09/09 08:18:51;;;;;;;;;;;;;;;23.86;49.22;100483.03;5123788;27;20389;-42
2022/09/09 08:21:18;;;;;;;;;;;;;;;23.85;49.16;100476.63;5105835;27;19945;-42
2022/09/09 08:23:45;;;;;;;;;;;;;;;23.85;48.80;100473.03;5122447;27;20018;-44
2022/09/09 08:26:14;;;;;;;;;;;;;;;23.85;48.95;100471.06;5123405;27;20437;-44
2022/09/09 08:28:40;;;;;;;;;;;;;;;23.86;48.74;100477.47;5125983;27;20045;-42
2022/09/09 08:31:06;;;;;;;;;;;;;;;23.86;49.00;100474.69;5125482;27;20311;-41
2022/09/09 08:33:33;;;;;;;;;;;;;;;23.90;49.35;100481.22;5122598;27;20245;-42
2022/09/09 08:35:58;;;;;;;;;;;;;;;23.90;49.55;100476.47;5110987;27;20013;-44
2022/09/09 08:38:24;;;;;;;;;;;;;;;23.88;48.98;100476.00;5118756;27;19923;-43
2022/09/09 08:40:50;;;;;;;;;;;;;;;23.88;48.68;100486.31;5116281;27;20693;-44
2022/09/09 08:43:17;;;;;;;;;;;;;;;23.88;48.63;100477.97;5125493;27;20010;-41
2022/09/09 08:45:48;;;;;;;;;;;;;;;23.89;48.70;100480.41;5117747;27;20072;-44
2022/09/09 08:48:17;;;;;;;;;;;;;;;23.89;48.95;100476.81;5118632;27;20023;-42
2022/09/09 08:50:43;;;;;;;;;;;;;;;23.88;48.65;100470.44;5119064;27;20065;-42
2022/09/09 08:53:24;;;;;;;;;;;;;;;23.89;48.78;100476.81;5118067;27;20021;-41
2022/09/09 08:55:51;;;;;;;;;;;;;;;23.89;48.88;100476.81;5113204;27;19966;-43
2022/09/09 08:58:21;;;;;;;;;;;;;;;23.86;48.26;100474.69;5101897;28;20019;-42
2022/09/09 09:00:52;;;;;;;;;;;;;;;23.88;48.55;100489.09;5117658;27;19924;-41
2022/09/09 09:03:22;;;;;;;;;;;;;;;23.88;48.83;100492.69;5114806;27;20014;-43
2022/09/09 09:05:54;;;;;;;;;;;;;;;23.89;48.81;100488.75;5115923;27;20021;-41
2022/09/09 09:08:25;;;;;;;;;;;;;;;23.90;49.31;100489.56;5112721;27;20010;-41
2022/09/09 09:10:51;;;;;;;;;;;;;;;23.86;48.14;100489.41;5092147;27;20074;-43
2022/09/09 09:13:20;;;;;;;;;;;;;;;23.87;48.46;100491.03;5116373;27;19963;-42
2022/09/09 09:15:47;;;;;;;;;;;;;;;23.88;48.55;100489.91;5111086;27;20026;-42
2022/09/09 09:18:12;;;;;;;;;;;;;;;23.86;48.39;100494.13;5112132;27;19995;-41
2022/09/09 09:20:43;;;;;;;;;;;;;;;23.85;47.86;100498.88;5114267;27;20307;-46
2022/09/09 09:23:09;;;;;;;;;;;;;;;23.87;48.63;100498.56;5117289;27;20021;-43
2022/09/09 09:25:35;;;;;;;;;;;;;;;23.87;48.51;100499.38;5114486;27;20003;-41
2022/09/09 09:28:05;;;;;;;;;;;;;;;23.86;48.18;100496.91;5112535;27;19958;-44
2022/09/09 09:30:35;;;;;;;;;;;;;;;23.85;48.24;100501.66;5095314;28;20018;-41
2022/09/09 09:33:02;;;;;;;;;;;;;;;23.84;48.24;100496.44;5111492;27;20026;-41
2022/09/09 09:35:27;;;;;;;;;;;;;;;23.87;48.49;100493.00;5097527;27;20387;-43
2022/09/09 09:37:53;;;;;;;;;;;;;;;23.87;48.63;100485.47;5117365;27;19931;-42
2022/09/09 09:40:47;;;;;;;;;;;;;;;23.87;49.79;100482.69;5107855;27;19984;-42
2022/09/09 09:43:16;;;;;;;;;;;;;;;23.88;48.74;100491.88;5096920;27;20027;-41
2022/09/09 09:45:44;;;;;;;;;;;;;;;23.14;44.57;100493.31;5116465;27;20066;-43
2022/09/09 09:48:30;;;;;;;;;;;;;;;23.45;44.70;100484.16;5089086;27;19923;-42
2022/09/09 09:51:00;;;;;;;;;;;;;;;23.63;44.79;100494.22;5123085;27;20408;-42
2022/09/09 09:53:28;;;;;;;;;;;;;;;23.71;45.11;100484.28;5118795;27;20090;-43
2022/09/09 09:55:56;;;;;;;;;;;;;;;23.76;46.60;100495.25;5121517;27;20018;-42
2022/09/09 09:58:22;;;;;;;;;;;;;;;23.78;47.28;100493.78;5116389;27;20053;-41
2022/09/09 10:00:49;;;;;;;;;;;;;;;23.80;47.79;100487.09;5125876;27;19923;-42
2022/09/09 10:03:23;;;;;;;;;;;;;;;23.81;45.87;100485.94;5101892;27;20441;-41
2022/09/09 10:05:49;;;;;;;;;;;;;;;23.80;45.98;100490.69;5122596;27;20058;-41
2022/09/09 10:08:16;;;;;;;;;;;;;;;23.80;45.79;100487.09;5096813;28;20008;-41
2022/09/09 10:10:45;;;;;;;;;;;;;;;23.81;45.83;100485.94;5123553;27;20440;-41
2022/09/09 10:13:25;;;;;;;;;;;;;;;23.80;46.05;100482.34;5119363;27;19931;-42
2022/09/09 10:16:10;;;;;;;;;;;;;;;23.78;45.72;100479.06;5112179;27;19924;-45
2022/09/09 10:18:38;;;;;;;;;;;;;;;23.81;45.90;100481.22;5099625;27;20297;-43
2022/09/09 10:24:05;;;;;;;;;;;;;;;23.81;46.26;100484.00;5154662;27;20348;-39
2022/09/09 10:26:36;;;;;;;;;;;;;;;23.81;46.12;100485.94;5153392;27;19935;-39
2022/09/09 10:29:08;;;;;;;;;;;;;;;23.83;46.28;100484.47;5151957;27;20022;-40
2022/09/09 10:31:38;;;;;;;;;;;;;;;23.86;46.46;100474.69;5155108;27;20017;-36
2022/09/09 10:34:24;;;;;;;;;;;;;;;23.95;47.69;100469.94;5155905;27;19978;-40
2022/09/09 10:36:56;;;;;;;;;;;;;;;24.03;47.38;100471.94;5142267;27;20329;-46
2022/09/09 10:39:37;;;;;;;;;;;;;;;24.01;46.92;100469.47;5155813;27;19935;-38
2022/09/09 10:42:09;;;;;;;;;;;;;;;23.99;47.14;100462.59;5129984;27;19923;-39
2022/09/09 10:44:38;;;;;;;;;;;;;;;23.97;47.38;100464.91;5153982;27;19943;-42
2022/09/09 10:49:52;;;;;;;;;;;;;;;23.93;46.88;100470.28;5122623;27;19930;-38
2022/09/09 10:52:28;;;;;;;;;;;;;;;23.94;46.66;100466.34;5126339;27;20018;-40
2022/09/09 10:55:10;;;;;;;;;;;;;;;23.94;46.89;100458.00;5120303;27;19942;-40
2022/09/09 10:57:52;;;;;;;;;;;;;;;23.93;46.19;100466.69;5118127;27;20038;-39
2022/09/09 11:00:19;;;;;;;;;;;;;;;23.69;44.31;100461.53;5125107;27;20022;-39
2022/09/09 11:02:45;;;;;;;;;;;;;;;23.75;44.14;100452.75;5107994;27;19975;-38
2022/09/09 11:05:19;;;;;;;;;;;;;;;23.83;44.42;100453.88;5125262;27;20369;-40
2022/09/09 11:08:01;;;;;;;;;;;;;;;23.85;44.90;100453.59;5126155;27;19927;-40
2022/09/09 11:10:30;;;;;;;;;;;;;;;23.85;45.20;100459.97;5126014;27;20417;-39
2022/09/09 11:12:58;;;;;;;;;;;;;;;23.86;45.18;100464.38;5123683;27;20018;-40
2022/09/09 11:15:25;;;;;;;;;;;;;;;23.88;45.76;100464.06;5133690;27;20074;-39
2022/09/09 11:17:54;;;;;;;;;;;;;;;23.90;45.64;100484.81;5125119;27;20417;-38
2022/09/09 11:20:19;;;;;;;;;;;;;;;23.89;45.73;100466.50;5134883;27;20065;-38
2022/09/09 11:23:03;;;;;;;;;;;;;;;23.88;45.90;100473.22;5129534;27;20202;-40
2022/09/09 11:25:32;;;;;;;;;;;;;;;23.88;45.84;100472.41;5126544;27;20017;-39
2022/09/09 11:28:17;;;;;;;;;;;;;;;23.83;45.31;100469.75;5125153;27;20308;-38
2022/09/09 11:31:02;;;;;;;;;;;;;;;23.88;45.41;100455.72;5110821;27;19935;-39
2022/09/09 11:36:27;;;;;;;;;;;;;;;23.48;44.88;100456.53;5153225;27;21154;-42
2022/09/09 11:38:56;;;;;;;;;;;;;;;23.65;45.14;100461.38;5119232;27;20436;-39
2022/09/09 11:41:21;;;;;;;;;;;;;;;23.77;44.88;100469.91;5131809;27;20412;-38
2022/09/09 11:43:48;;;;;;;;;;;;;;;23.38;44.73;100473.50;5123973;27;19928;-45
2022/09/09 11:46:15;;;;;;;;;;;;;;;23.68;45.07;100469.06;5093590;27;19986;-38
2022/09/09 11:48:45;;;;;;;;;;;;;;;23.79;45.00;100469.56;5111973;27;20000;-39
2022/09/09 11:51:12;;;;;;;;;;;;;;;23.83;45.14;100459.44;5115555;27;20018;-38
2022/09/09 11:53:50;;;;;;;;;;;;;;;23.84;45.40;100469.44;5098558;28;19973;-39
2022/09/09 11:56:24;;;;;;;;;;;;;;;23.87;45.49;100476.31;5100839;27;21566;-38
2022/09/09 11:59:05;;;;;;;;;;;;;;;23.88;45.61;100466.84;5112840;27;20080;-41
2022/09/09 12:04:13;;;;;;;;;;;;;;;23.92;46.22;100467.81;5171180;27;20025;-38
2022/09/09 12:06:46;;;;;;;;;;;;;;;23.92;46.13;100463.09;5156798;27;19934;-38
2022/09/09 12:09:17;;;;;;;;;;;;;;;23.92;46.34;100462.25;5141620;27;19931;-38
2022/09/09 12:11:43;;;;;;;;;;;;;;;23.89;46.05;100462.91;5161954;27;19962;-40
2022/09/09 12:14:18;;;;;;;;;;;;;;;23.90;46.28;100457.00;5162142;27;19946;-39
2022/09/09 12:16:44;;;;;;;;;;;;;;;23.89;46.15;100460.94;5157431;27;20009;-39
2022/09/09 12:19:24;;;;;;;;;;;;;;;23.92;46.32;100465.88;5161644;27;20285;-38
2022/09/09 12:22:02;;;;;;;;;;;;;;;23.91;46.25;100458.66;5161827;27;19942;-38
2022/09/09 12:24:48;;;;;;;;;;;;;;;23.89;46.15;100462.91;5166151;27;20014;-39
2022/09/09 12:27:32;;;;;;;;;;;;;;;23.90;46.37;100465.34;5139042;27;19993;-39
2022/09/09 12:30:02;;;;;;;;;;;;;;;23.94;46.44;100471.09;5144935;27;20018;-38
2022/09/09 12:32:28;;;;;;;;;;;;;;;23.93;46.66;100461.94;5165876;27;20373;-37
2022/09/09 12:34:55;;;;;;;;;;;;;;;23.95;46.68;100458.81;5163140;27;19946;-38
2022/09/09 12:37:27;;;;;;;;;;;;;;;23.96;46.81;100471.56;5167115;27;19963;-38
2022/09/09 12:39:55;;;;;;;;;;;;;;;23.97;46.93;100464.91;5142684;27;19966;-38
2022/09/09 12:42:21;;;;;;;;;;;;;;;23.97;46.80;100462.94;5164060;27;19923;-38
2022/09/09 12:44:54;;;;;;;;;;;;;;;23.99;47.24;100462.59;5142112;27;20380;-38
2022/09/09 12:47:21;;;;;;;;;;;;;;;24.00;47.09;100464.22;5163702;27;20048;-38
2022/09/09 12:49:46;;;;;;;;;;;;;;;23.99;47.11;100459.81;5162800;27;19970;-38
2022/09/09 12:52:13;;;;;;;;;;;;;;;23.99;47.41;100466.19;5163724;27;19938;-38
2022/09/09 12:54:43;;;;;;;;;;;;;;;24.00;47.39;100465.03;5166932;27;19976;-38
2022/09/09 12:57:10;;;;;;;;;;;;;;;23.98;46.85;100464.56;5145218;27;20425;-38
2022/09/09 12:59:37;;;;;;;;;;;;;;;24.00;47.41;100461.44;5146283;27;20034;-38